Time,TemperatureF,DewpointF,PressureIn,WindDirection,WindDirectionDegrees,WindSpeedMPH,WindSpeedGustMPH,Humidity,HourlyPrecipIn,Conditions,Clouds,dailyrainin,SoftwareType,DateUTC
2013-05-22 00:04:00,64.0,62.0,30.06,South,172,1.0,3.0,93,0.00,,,0.00,weatherlink.com 1.10,2013-05-22 04:04:00,
2013-05-22 00:19:00,63.7,62.0,30.06,South,172,1.0,4.0,93,0.00,,,0.00,weatherlink.com 1.10,2013-05-22 04:19:00,
2013-05-22 00:34:00,63.2,61.0,30.06,South,172,1.0,2.0,92,0.00,,,0.00,weatherlink.com 1.10,2013-05-22 04:34:00,
2013-05-22 00:49:00,62.6,60.0,30.05,South,172,0.0,2.0,91,0.00,,,0.00,weatherlink.com 1.10,2013-05-22 04:49:00,
2013-05-22 01:04:00,62.6,60.0,30.05,South,172,0.0,1.0,91,0.00,,,0.00,weatherlink.com 1.10,2013-05-22 05:04:00,
2013-05-22 01:19:00,62.7,60.0,30.04,South,172,0.0,1.0,91,0.00,,,0.00,weatherlink.com 1.10,2013-05-22 05:19:00,
2013-05-22 01:34:00,62.8,60.0,30.04,South,172,0.0,0.0,90,0.00,,,0.00,weatherlink.com 1.10,2013-05-22 05:34:00,
2013-05-22 01:49:00,62.7,60.0,30.04,South,172,0.0,0.0,91,0.00,,,0.00,weatherlink.com 1.10,2013-05-22 05:49:00,
2013-05-22 02:04:00,63.2,62.0,30.04,South,172,0.0,0.0,94,0.00,,,0.00,weatherlink.com 1.10,2013-05-22 06:04:00,
2013-05-22 02:19:00,63.6,62.0,30.03,South,172,0.0,0.0,93,0.00,,,0.00,weatherlink.com 1.10,2013-05-22 06:19:00,
2013-05-22 02:34:00,63.3,61.0,30.03,South,172,0.0,0.0,93,0.00,,,0.00,weatherlink.com 1.10,2013-05-22 06:34:00,
2013-05-22 02:49:00,63.2,61.0,30.03,South,172,0.0,0.0,93,0.00,,,0.00,weatherlink.com 1.10,2013-05-22 06:49:00,
2013-05-22 03:04:00,63.1,61.0,30.01,South,172,0.0,2.0,93,0.00,,,0.00,weatherlink.com 1.10,2013-05-22 07:04:00,
2013-05-22 03:20:00,63.2,61.0,30.00,South,172,0.0,2.0,93,0.00,,,0.00,weatherlink.com 1.10,2013-05-22 07:20:00,
2013-05-22 03:34:00,63.1,61.0,30.00,South,172,0.0,2.0,92,0.00,,,0.00,weatherlink.com 1.10,2013-05-22 07:34:00,
2013-05-22 03:49:00,62.4,60.0,30.00,South,172,0.0,2.0,93,0.00,,,0.00,weatherlink.com 1.10,2013-05-22 07:49:00,
2013-05-22 04:05:00,62.7,60.0,29.99,South,172,0.0,3.0,92,0.00,,,0.00,weatherlink.com 1.10,2013-05-22 08:05:00,
2013-05-22 04:20:00,62.9,61.0,29.99,South,172,0.0,2.0,92,0.00,,,0.00,weatherlink.com 1.10,2013-05-22 08:20:00,
2013-05-22 04:35:00,63.2,61.0,29.99,South,172,1.0,6.0,92,0.00,,,0.00,weatherlink.com 1.10,2013-05-22 08:35:00,
2013-05-22 04:50:00,63.6,61.0,29.99,South,172,2.0,3.0,92,0.00,,,0.00,weatherlink.com 1.10,2013-05-22 08:50:00,
2013-05-22 05:05:00,63.6,61.0,29.99,South,172,1.0,6.0,92,0.00,,,0.00,weatherlink.com 1.10,2013-05-22 09:05:00,
2013-05-22 05:20:00,63.4,61.0,29.99,South,173,3.0,5.0,93,0.00,,,0.00,weatherlink.com 1.10,2013-05-22 09:20:00,
2013-05-22 05:35:00,63.3,61.0,29.99,South,173,2.0,5.0,93,0.00,,,0.00,weatherlink.com 1.10,2013-05-22 09:35:00,
2013-05-22 05:50:00,63.3,61.0,30.00,South,172,1.0,6.0,93,0.00,,,0.00,weatherlink.com 1.10,2013-05-22 09:50:00,
2013-05-22 06:05:00,63.2,61.0,29.99,South,172,0.0,4.0,93,0.00,,,0.00,weatherlink.com 1.10,2013-05-22 10:05:00,
2013-05-22 06:20:00,63.3,61.0,30.00,South,172,1.0,5.0,92,0.00,,,0.00,weatherlink.com 1.10,2013-05-22 10:20:00,
2013-05-22 06:35:00,63.4,61.0,30.01,South,170,2.0,6.0,91,0.00,,,0.00,weatherlink.com 1.10,2013-05-22 10:35:00,
2013-05-22 06:50:00,63.7,61.0,30.02,South,170,4.0,6.0,90,0.00,,,0.00,weatherlink.com 1.10,2013-05-22 10:50:00,
2013-05-22 07:05:00,63.6,61.0,30.02,South,169,1.0,7.0,91,0.00,,,0.00,weatherlink.com 1.10,2013-05-22 11:05:00,
2013-05-22 07:20:00,63.7,61.0,30.02,South,169,2.0,6.0,91,0.00,,,0.00,weatherlink.com 1.10,2013-05-22 11:20:00,
2013-05-22 07:35:00,64.5,62.0,30.02,South,170,0.0,7.0,90,0.00,,,0.00,weatherlink.com 1.10,2013-05-22 11:35:00,
2013-05-22 07:50:00,65.1,62.0,30.02,South,173,2.0,6.0,90,0.00,,,0.00,weatherlink.com 1.10,2013-05-22 11:50:00,
2013-05-22 08:05:00,65.9,62.0,30.03,South,174,2.0,6.0,87,0.00,,,0.00,weatherlink.com 1.10,2013-05-22 12:05:00,
2013-05-22 08:20:00,66.4,63.0,30.03,South,170,0.0,8.0,87,0.00,,,0.00,weatherlink.com 1.10,2013-05-22 12:20:00,
2013-05-22 08:35:00,67.8,62.0,30.03,South,174,1.0,6.0,82,0.00,,,0.00,weatherlink.com 1.10,2013-05-22 12:35:00,
2013-05-22 08:50:00,69.0,63.0,30.03,South,175,2.0,4.0,81,0.00,,,0.00,weatherlink.com 1.10,2013-05-22 12:50:00,
2013-05-22 09:05:00,69.0,62.0,30.02,South,173,3.0,7.0,79,0.00,,,0.00,weatherlink.com 1.10,2013-05-22 13:05:00,
2013-05-22 09:20:00,70.1,64.0,30.02,South,173,2.0,4.0,80,0.00,,,0.00,weatherlink.com 1.10,2013-05-22 13:20:00,
2013-05-22 09:35:00,71.6,63.0,30.03,South,173,4.0,6.0,73,0.00,,,0.00,weatherlink.com 1.10,2013-05-22 13:35:00,
2013-05-22 09:50:00,71.3,63.0,30.03,South,172,4.0,6.0,76,0.00,,,0.00,weatherlink.com 1.10,2013-05-22 13:50:00,
2013-05-22 10:05:00,71.2,63.0,30.03,South,173,3.0,5.0,76,0.00,,,0.00,weatherlink.com 1.10,2013-05-22 14:05:00,
2013-05-22 10:20:00,73.1,65.0,30.03,South,173,1.0,7.0,76,0.00,,,0.00,weatherlink.com 1.10,2013-05-22 14:20:00,
2013-05-22 10:35:00,74.5,67.0,30.03,South,173,0.0,5.0,76,0.00,,,0.00,weatherlink.com 1.10,2013-05-22 14:35:00,
2013-05-22 10:50:00,73.8,67.0,30.03,South,173,0.0,6.0,78,0.00,,,0.00,weatherlink.com 1.10,2013-05-22 14:50:00,
2013-05-22 11:05:00,73.5,66.0,30.03,South,173,3.0,3.0,77,0.00,,,0.00,weatherlink.com 1.10,2013-05-22 15:05:00,
2013-05-22 11:20:00,73.8,65.0,30.04,South,172,2.0,8.0,75,0.00,,,0.00,weatherlink.com 1.10,2013-05-22 15:20:00,
2013-05-22 11:35:00,74.8,66.0,30.04,South,172,1.0,3.0,73,0.00,,,0.00,weatherlink.com 1.10,2013-05-22 15:35:00,
2013-05-22 11:50:00,75.2,64.0,30.03,South,172,0.0,3.0,69,0.00,,,0.00,weatherlink.com 1.10,2013-05-22 15:50:00,
2013-05-22 12:05:00,78.2,67.0,30.03,South,172,1.0,3.0,68,0.00,,,0.00,weatherlink.com 1.10,2013-05-22 16:05:00,
2013-05-22 12:20:00,77.0,67.0,30.03,South,172,0.0,2.0,70,0.00,,,0.00,weatherlink.com 1.10,2013-05-22 16:20:00,
2013-05-22 12:35:00,73.3,66.0,30.02,South,173,1.0,2.0,79,0.00,,,0.00,weatherlink.com 1.10,2013-05-22 16:35:00,
2013-05-22 12:50:00,69.2,65.0,30.02,South,176,2.0,5.0,87,0.07,,,0.07,weatherlink.com 1.10,2013-05-22 16:50:00,
2013-05-22 13:05:00,66.7,63.0,30.02,South,180,0.0,8.0,89,0.12,,,0.12,weatherlink.com 1.10,2013-05-22 17:05:00,
2013-05-22 13:20:00,63.9,59.0,30.03,South,170,2.0,11.0,85,0.15,,,0.15,weatherlink.com 1.10,2013-05-22 17:20:00,
2013-05-22 13:51:00,61.0,55.0,30.00,South,173,0.0,2.0,81,0.24,,,0.31,weatherlink.com 1.10,2013-05-22 17:51:00,
2013-05-22 14:06:00,62.0,58.0,30.01,South,173,0.0,2.0,87,0.19,,,0.31,weatherlink.com 1.10,2013-05-22 18:06:00,
2013-05-22 14:21:00,63.4,58.0,30.01,South,173,0.0,1.0,82,0.16,,,0.31,weatherlink.com 1.10,2013-05-22 18:21:00,
2013-05-22 14:36:00,68.6,59.0,30.01,South,173,0.0,1.0,72,0.02,,,0.31,weatherlink.com 1.10,2013-05-22 18:36:00,
2013-05-22 14:51:00,68.8,64.0,30.01,South,173,1.0,1.0,83,0.00,,,0.31,weatherlink.com 1.10,2013-05-22 18:51:00,
2013-05-22 15:06:00,69.6,65.0,30.00,South,173,1.0,2.0,86,0.00,,,0.31,weatherlink.com 1.10,2013-05-22 19:06:00,
2013-05-22 15:21:00,70.1,65.0,29.99,South,173,1.0,3.0,84,0.00,,,0.31,weatherlink.com 1.10,2013-05-22 19:21:00,
2013-05-22 15:36:00,69.2,65.0,29.99,South,173,2.0,3.0,85,0.00,,,0.31,weatherlink.com 1.10,2013-05-22 19:36:00,
2013-05-22 15:51:00,67.6,62.0,29.98,South,174,0.0,5.0,82,0.00,,,0.31,weatherlink.com 1.10,2013-05-22 19:51:00,
2013-05-22 16:06:00,65.3,59.0,29.97,South,173,1.0,5.0,80,0.00,,,0.31,weatherlink.com 1.10,2013-05-22 20:06:00,
2013-05-22 16:21:00,66.3,62.0,29.96,South,174,0.0,1.0,85,0.00,,,0.31,weatherlink.com 1.10,2013-05-22 20:21:00,
2013-05-22 16:36:00,68.8,63.0,29.96,South,174,0.0,3.0,82,0.00,,,0.31,weatherlink.com 1.10,2013-05-22 20:36:00,
2013-05-22 16:51:00,69.0,64.0,29.95,South,174,1.0,3.0,85,0.00,,,0.31,weatherlink.com 1.10,2013-05-22 20:51:00,
2013-05-22 17:06:00,69.0,64.0,29.95,South,174,2.0,2.0,83,0.00,,,0.31,weatherlink.com 1.10,2013-05-22 21:06:00,
2013-05-22 17:21:00,66.7,63.0,29.96,South,174,3.0,3.0,88,0.00,,,0.31,weatherlink.com 1.10,2013-05-22 21:21:00,
2013-05-22 17:36:00,65.8,62.0,29.96,South,174,0.0,1.0,86,0.00,,,0.31,weatherlink.com 1.10,2013-05-22 21:36:00,
2013-05-22 17:51:00,65.2,59.0,29.96,South,174,2.0,14.0,81,0.06,,,0.37,weatherlink.com 1.10,2013-05-22 21:51:00,
2013-05-22 18:06:00,62.9,60.0,29.97,South,174,1.0,2.0,89,0.09,,,0.40,weatherlink.com 1.10,2013-05-22 22:06:00,
2013-05-22 18:21:00,61.9,59.0,29.96,South,174,0.0,2.0,91,0.09,,,0.40,weatherlink.com 1.10,2013-05-22 22:21:00,
2013-05-22 18:36:00,61.3,59.0,29.96,South,175,0.0,1.0,92,0.09,,,0.40,weatherlink.com 1.10,2013-05-22 22:36:00,
2013-05-22 18:51:00,61.5,60.0,29.96,South,174,0.0,1.0,94,0.04,,,0.41,weatherlink.com 1.10,2013-05-22 22:51:00,
2013-05-22 19:06:00,61.2,60.0,29.97,South,174,0.0,2.0,94,0.01,,,0.41,weatherlink.com 1.10,2013-05-22 23:06:00,
2013-05-22 19:21:00,61.4,60.0,29.96,South,174,2.0,5.0,95,0.03,,,0.43,weatherlink.com 1.10,2013-05-22 23:21:00,
2013-05-22 19:36:00,61.2,60.0,29.98,South,174,0.0,4.0,95,0.03,,,0.43,weatherlink.com 1.10,2013-05-22 23:36:00,
2013-05-22 19:51:00,61.1,60.0,29.98,South,174,1.0,3.0,95,0.02,,,0.43,weatherlink.com 1.10,2013-05-22 23:51:00,
2013-05-22 20:06:00,60.8,59.0,29.99,South,176,0.0,5.0,95,0.02,,,0.43,weatherlink.com 1.10,2013-05-23 00:06:00,
2013-05-22 20:21:00,60.6,60.0,30.00,South,176,1.0,2.0,96,0.00,,,0.43,weatherlink.com 1.10,2013-05-23 00:21:00,
2013-05-22 20:36:00,60.2,59.0,29.99,South,176,1.0,4.0,96,0.00,,,0.43,weatherlink.com 1.10,2013-05-23 00:36:00,
2013-05-22 20:51:00,60.0,59.0,29.99,South,176,1.0,3.0,96,0.00,,,0.43,weatherlink.com 1.10,2013-05-23 00:51:00,
2013-05-22 21:06:00,59.9,59.0,29.99,South,176,0.0,3.0,96,0.02,,,0.45,weatherlink.com 1.10,2013-05-23 01:06:00,
2013-05-22 21:21:00,59.8,59.0,29.99,South,176,0.0,3.0,96,0.02,,,0.45,weatherlink.com 1.10,2013-05-23 01:21:00,
2013-05-22 21:36:00,59.7,59.0,29.98,South,176,0.0,3.0,96,0.02,,,0.45,weatherlink.com 1.10,2013-05-23 01:36:00,
2013-05-22 21:51:00,59.7,59.0,29.98,South,176,0.0,1.0,96,0.02,,,0.45,weatherlink.com 1.10,2013-05-23 01:51:00,
2013-05-22 22:06:00,60.0,59.0,29.98,South,176,0.0,1.0,96,0.00,,,0.45,weatherlink.com 1.10,2013-05-23 02:06:00,
2013-05-22 22:21:00,60.0,59.0,30.01,SE,127,13.0,13.0,96,0.02,,,0.47,weatherlink.com 1.10,2013-05-23 02:21:00,
2013-05-22 22:36:00,57.9,56.0,30.00,South,173,1.0,10.0,94,0.10,,,0.55,weatherlink.com 1.10,2013-05-23 02:36:00,
2013-05-22 22:51:00,57.4,56.0,30.00,South,172,1.0,5.0,95,0.20,,,0.65,weatherlink.com 1.10,2013-05-23 02:51:00,
2013-05-22 23:07:00,57.2,56.0,29.99,South,172,0.0,2.0,94,0.23,,,0.68,weatherlink.com 1.10,2013-05-23 03:07:00,
2013-05-22 23:21:00,57.3,56.0,29.99,South,172,0.0,4.0,94,0.20,,,0.68,weatherlink.com 1.10,2013-05-23 03:21:00,
2013-05-22 23:36:00,57.3,56.0,30.00,South,172,1.0,2.0,95,0.13,,,0.68,weatherlink.com 1.10,2013-05-23 03:36:00,
2013-05-22 23:51:00,57.6,57.0,30.00,South,172,0.0,0.0,96,0.03,,,0.68,weatherlink.com 1.10,2013-05-23 03:51:00,